createdAt,value
2022-10-04T00:00:12.291Z,0.47
2022-10-04T00:00:30.187Z,0.40
2022-10-04T00:00:46.772Z,0.40
2022-10-04T00:01:06.404Z,0.56
2022-10-04T00:01:23.956Z,0.57
2022-10-04T00:01:45.254Z,0.40
2022-10-04T00:02:05.889Z,0.40
2022-10-04T00:02:24.899Z,0.30
2022-10-04T00:02:46.977Z,0.40
2022-10-04T00:03:07.157Z,0.30
2022-10-04T00:03:26.162Z,0.50
2022-10-04T00:03:44.195Z,0.40
2022-10-04T00:04:05.349Z,0.47
2022-10-04T00:04:25.893Z,0.50
2022-10-04T00:04:44.133Z,0.45
2022-10-04T00:05:04.175Z,0.60
2022-10-04T00:05:22.396Z,0.63
2022-10-04T00:05:40.001Z,0.52
2022-10-04T00:05:59.310Z,0.52
2022-10-04T00:06:17.826Z,0.55
2022-10-04T00:06:35.065Z,0.50
2022-10-04T00:06:54.660Z,0.47
2022-10-04T00:07:17.269Z,0.60
2022-10-04T00:07:34.403Z,0.32
2022-10-04T00:07:53.939Z,0.38
2022-10-04T00:08:19.499Z,0.30
2022-10-04T00:08:38.688Z,0.35
2022-10-04T00:08:59.602Z,0.30
2022-10-04T00:09:17.852Z,0.60
2022-10-04T00:09:36.144Z,0.50
2022-10-04T00:09:54.679Z,0.32
2022-10-04T00:10:19.920Z,0.40
2022-10-04T00:10:37.061Z,0.30
2022-10-04T00:11:01.704Z,0.30
2022-10-04T00:11:20.342Z,0.55
2022-10-04T00:11:37.648Z,0.80
2022-10-04T00:11:56.563Z,0.30
2022-10-04T00:12:17.132Z,0.30
2022-10-04T00:12:34.960Z,0.55
2022-10-04T00:12:52.501Z,0.60
2022-10-04T00:13:15.344Z,0.30
2022-10-04T00:13:33.647Z,0.30
2022-10-04T00:13:53.659Z,0.35
2022-10-04T00:14:15.040Z,0.70
2022-10-04T00:14:35.676Z,0.60
2022-10-04T00:14:54.263Z,0.40
2022-10-04T00:15:18.313Z,0.28
2022-10-04T00:15:37.282Z,0.20
2022-10-04T00:15:53.865Z,0.30
2022-10-04T00:16:21.004Z,0.55
2022-10-04T00:16:38.758Z,0.30
2022-10-04T00:16:56.304Z,0.20
2022-10-04T00:17:14.139Z,0.20
2022-10-04T00:17:35.521Z,0.30
2022-10-04T00:18:00.657Z,0.30
2022-10-04T00:18:22.939Z,0.30
2022-10-04T00:18:40.615Z,0.60
2022-10-04T00:19:01.997Z,0.40
2022-10-04T00:19:39.657Z,0.50
2022-10-04T00:19:56.291Z,0.45
2022-10-04T00:20:27.688Z,1.00
2022-10-04T00:20:59.095Z,0.50
2022-10-04T00:21:16.534Z,0.35
2022-10-04T00:21:52.248Z,0.40
2022-10-04T00:22:12.460Z,0.50
2022-10-04T00:22:29.144Z,0.40
2022-10-04T00:23:11.381Z,0.60
2022-10-04T00:23:39.911Z,0.22
2022-10-04T00:24:09.227Z,0.40
2022-10-04T00:24:26.762Z,0.40
2022-10-04T00:25:03.111Z,0.22
2022-10-04T00:25:20.269Z,0.28
2022-10-04T00:25:36.872Z,0.40
2022-10-04T00:25:54.471Z,0.30
2022-10-04T00:26:15.631Z,0.26
2022-10-04T00:26:50.654Z,0.50
2022-10-04T00:27:12.679Z,0.60
2022-10-04T00:27:29.292Z,0.63
2022-10-04T00:28:04.996Z,0.30
2022-10-04T00:28:30.260Z,0.28
2022-10-04T00:28:49.487Z,0.30
2022-10-04T00:29:30.061Z,0.20
2022-10-04T00:29:49.945Z,0.35
2022-10-04T00:30:15.774Z,0.68
2022-10-04T00:30:37.194Z,0.50
2022-10-04T00:31:11.056Z,0.40
2022-10-04T00:31:27.922Z,0.40
2022-10-04T00:31:59.379Z,0.32
2022-10-04T00:32:27.936Z,0.52
2022-10-04T00:32:59.290Z,0.47
2022-10-04T00:33:30.644Z,0.70
2022-10-04T00:33:49.178Z,0.50
2022-10-04T00:34:20.531Z,0.40
2022-10-04T00:34:47.187Z,0.30
2022-10-04T00:35:24.952Z,0.40
2022-10-04T00:35:50.350Z,0.50
2022-10-04T00:36:36.776Z,0.40
2022-10-04T00:36:54.910Z,0.40
2022-10-04T00:37:13.740Z,0.50
2022-10-04T00:37:50.253Z,0.40
2022-10-04T00:38:09.069Z,0.45
2022-10-04T00:38:27.395Z,0.40
2022-10-04T00:38:43.886Z,0.40
2022-10-04T00:39:17.859Z,0.52
2022-10-04T00:39:39.781Z,0.30
2022-10-04T00:39:58.426Z,0.30
2022-10-04T00:40:17.567Z,0.40
2022-10-04T00:40:35.367Z,0.38
2022-10-04T00:40:56.042Z,0.43
2022-10-04T00:41:13.197Z,0.50
2022-10-04T00:41:34.310Z,0.45
2022-10-04T00:42:04.101Z,0.45
2022-10-04T00:42:40.096Z,0.30
2022-10-04T00:42:58.756Z,0.50
2022-10-04T00:43:17.618Z,0.38
2022-10-04T00:43:37.743Z,0.34
2022-10-04T00:43:56.304Z,0.35
2022-10-04T00:44:19.024Z,0.40
2022-10-04T00:44:38.883Z,0.30
2022-10-04T00:44:58.512Z,0.40
2022-10-04T00:45:27.324Z,0.45
2022-10-04T00:45:46.022Z,0.50
2022-10-04T00:46:04.656Z,0.43
2022-10-04T00:46:24.171Z,0.40
2022-10-04T00:46:41.329Z,0.70
2022-10-04T00:46:58.942Z,0.70
2022-10-04T00:47:23.014Z,0.60
2022-10-04T00:47:52.038Z,0.43
2022-10-04T00:48:31.544Z,0.50
2022-10-04T00:48:50.705Z,0.50
2022-10-04T00:49:09.187Z,0.40
2022-10-04T00:49:29.527Z,0.50
2022-10-04T00:49:46.803Z,1.27
2022-10-04T00:50:08.888Z,1.30
2022-10-04T00:50:28.313Z,0.40
2022-10-04T00:50:49.094Z,0.40
2022-10-04T00:51:10.973Z,0.40
2022-10-04T00:51:31.209Z,0.40
2022-10-04T00:51:50.286Z,0.70
2022-10-04T00:52:09.424Z,0.60
2022-10-04T00:52:27.490Z,0.82
2022-10-04T00:52:47.450Z,0.98
2022-10-04T00:53:12.314Z,0.40
2022-10-04T00:53:39.056Z,0.40
2022-10-04T00:54:02.252Z,0.50
2022-10-04T00:54:20.276Z,0.60
2022-10-04T00:54:41.241Z,0.40
2022-10-04T00:54:59.445Z,0.70
2022-10-04T00:55:20.004Z,0.70
2022-10-04T00:55:40.058Z,0.52
2022-10-04T00:55:59.465Z,0.88
2022-10-04T00:56:20.356Z,0.90
2022-10-04T00:56:40.878Z,0.50
2022-10-04T00:56:59.347Z,0.57
2022-10-04T00:57:17.963Z,0.65
2022-10-04T00:57:35.856Z,0.40
2022-10-04T00:57:56.021Z,0.50
2022-10-04T00:58:16.481Z,0.60
2022-10-04T00:58:34.780Z,0.70
2022-10-04T00:59:16.110Z,0.63
2022-10-04T00:59:35.058Z,0.80
2022-10-04T00:59:52.678Z,0.60
2022-10-04T01:00:12.458Z,0.50
2022-10-04T01:00:31.355Z,0.40
2022-10-04T01:00:48.463Z,0.38
2022-10-04T01:01:05.206Z,0.60
2022-10-04T01:01:24.128Z,0.68
2022-10-04T01:01:44.725Z,0.60
2022-10-04T01:02:04.793Z,0.75
2022-10-04T01:02:23.030Z,0.70
2022-10-04T01:02:46.091Z,0.75
2022-10-04T01:03:04.965Z,0.60
2022-10-04T01:03:25.486Z,0.65
2022-10-04T01:03:44.689Z,0.60
2022-10-04T01:04:03.256Z,0.55
2022-10-04T01:04:26.399Z,0.60
2022-10-04T01:04:45.293Z,0.50
2022-10-04T01:05:03.461Z,0.57
2022-10-04T01:05:22.266Z,0.70
2022-10-04T01:05:40.542Z,0.50
2022-10-04T01:05:59.560Z,0.32
2022-10-04T01:06:19.651Z,0.70
2022-10-04T01:06:37.080Z,0.90
2022-10-04T01:06:53.860Z,1.40
2022-10-04T01:07:12.483Z,0.90
2022-10-04T01:07:30.920Z,0.50
2022-10-04T01:07:48.686Z,0.68
2022-10-04T01:08:08.522Z,0.65
2022-10-04T01:08:27.506Z,0.50
2022-10-04T01:08:47.359Z,0.50
2022-10-04T01:09:06.201Z,0.77
2022-10-04T01:09:22.828Z,0.68
2022-10-04T01:09:43.457Z,0.52
2022-10-04T01:10:01.312Z,0.60
2022-10-04T01:10:21.126Z,0.65
2022-10-04T01:10:41.048Z,0.60
2022-10-04T01:10:59.241Z,0.55
2022-10-04T01:11:17.510Z,0.95
2022-10-04T01:11:36.743Z,0.90
2022-10-04T01:11:57.791Z,0.60
2022-10-04T01:12:18.490Z,0.50
2022-10-04T01:12:42.554Z,0.40
2022-10-04T01:13:04.656Z,0.50
2022-10-04T01:13:23.126Z,0.52
2022-10-04T01:13:42.390Z,1.10
2022-10-04T01:14:00.765Z,1.00
2022-10-04T01:14:20.180Z,0.60
2022-10-04T01:14:42.273Z,0.60
2022-10-04T01:15:02.786Z,0.60
2022-10-04T01:15:25.633Z,0.57
2022-10-04T01:15:43.955Z,0.38
2022-10-04T01:16:04.291Z,0.60
2022-10-04T01:16:22.907Z,0.80
2022-10-04T01:16:39.580Z,0.50
2022-10-04T01:16:56.405Z,0.60
2022-10-04T01:17:13.905Z,0.85
2022-10-04T01:17:30.696Z,0.90
2022-10-04T01:18:09.187Z,1.13
2022-10-04T01:18:30.753Z,0.77
2022-10-04T01:18:48.624Z,0.72
2022-10-04T01:19:24.406Z,0.70
2022-10-04T01:19:49.687Z,0.93
2022-10-04T01:20:25.090Z,0.70
2022-10-04T01:20:50.871Z,0.65
2022-10-04T01:21:08.586Z,0.77
2022-10-04T01:21:29.429Z,1.10
2022-10-04T01:21:47.036Z,0.54
2022-10-04T01:22:10.171Z,0.60
2022-10-04T01:22:37.240Z,0.55
2022-10-04T01:22:55.103Z,0.70
2022-10-04T01:23:11.620Z,0.63
2022-10-04T01:23:32.043Z,0.80
2022-10-04T01:23:49.617Z,1.00
2022-10-04T01:24:17.448Z,0.90
2022-10-04T01:24:34.898Z,0.63
2022-10-04T01:24:51.399Z,0.70
2022-10-04T01:25:08.152Z,0.93
2022-10-04T01:25:44.123Z,1.42
2022-10-04T01:26:01.680Z,1.00
2022-10-04T01:26:38.961Z,0.98
2022-10-04T01:26:55.541Z,0.68
2022-10-04T01:27:31.946Z,0.65
2022-10-04T01:27:49.622Z,1.55
2022-10-04T01:28:06.235Z,1.00
2022-10-04T01:28:22.918Z,0.77
2022-10-04T01:28:39.637Z,0.70
2022-10-04T01:28:58.837Z,0.60
2022-10-04T01:29:18.098Z,0.70
2022-10-04T01:29:34.648Z,0.70
2022-10-04T01:29:51.832Z,0.85
2022-10-04T01:30:09.689Z,1.00
2022-10-04T01:30:28.403Z,0.80
2022-10-04T01:30:46.167Z,0.80
2022-10-04T01:31:02.728Z,0.65
2022-10-04T01:31:19.465Z,0.50
2022-10-04T01:31:37.203Z,0.80
2022-10-04T01:31:55.094Z,0.82
2022-10-04T01:32:12.630Z,0.73
2022-10-04T01:32:31.030Z,0.80
2022-10-04T01:32:47.533Z,0.57
2022-10-04T01:33:06.849Z,0.57
2022-10-04T01:33:23.379Z,0.90
2022-10-04T01:33:41.104Z,0.68
2022-10-04T01:33:57.867Z,0.30
2022-10-04T01:34:15.677Z,0.40
2022-10-04T01:34:32.240Z,0.77
2022-10-04T01:34:48.757Z,0.80
2022-10-04T01:35:07.811Z,0.55
2022-10-04T01:35:24.401Z,0.60
2022-10-04T01:35:41.047Z,0.88
2022-10-04T01:35:57.590Z,0.90
2022-10-04T01:36:14.082Z,0.68
2022-10-04T01:36:31.154Z,0.55
2022-10-04T01:36:49.223Z,0.47
2022-10-04T01:37:05.786Z,0.50
2022-10-04T01:37:22.275Z,0.60
2022-10-04T01:37:40.379Z,0.60
2022-10-04T01:37:56.907Z,0.70
2022-10-04T01:38:14.401Z,0.80
2022-10-04T01:38:30.891Z,0.70
2022-10-04T01:38:47.662Z,0.70
2022-10-04T01:39:04.771Z,0.76
2022-10-04T01:39:22.028Z,0.70
2022-10-04T01:39:38.568Z,0.80
2022-10-04T01:39:56.074Z,1.00
2022-10-04T01:40:12.683Z,0.63
2022-10-04T01:40:31.788Z,0.40
2022-10-04T01:40:50.735Z,0.57
2022-10-04T01:41:08.297Z,0.66
2022-10-04T01:41:28.812Z,0.40
2022-10-04T01:41:47.263Z,0.50
2022-10-04T01:42:07.418Z,0.60
2022-10-04T01:42:27.294Z,0.80
2022-10-04T01:42:46.557Z,0.75
2022-10-04T01:43:05.747Z,0.73
2022-10-04T01:43:25.017Z,0.75
2022-10-04T01:43:43.189Z,0.70
2022-10-04T01:44:03.039Z,0.90
2022-10-04T01:44:24.148Z,0.85
2022-10-04T01:44:45.439Z,0.68
2022-10-04T01:45:03.158Z,0.60
2022-10-04T01:45:22.306Z,0.90
2022-10-04T01:45:40.428Z,0.80
2022-10-04T01:46:02.182Z,0.63
2022-10-04T01:46:20.575Z,1.00
2022-10-04T01:46:38.763Z,0.90
2022-10-04T01:46:56.650Z,0.60
2022-10-04T01:47:22.527Z,0.65
2022-10-04T01:47:42.662Z,0.65
2022-10-04T01:48:00.695Z,0.57
2022-10-04T01:48:19.251Z,0.55
2022-10-04T01:48:36.754Z,0.50
2022-10-04T01:48:54.922Z,0.45
2022-10-04T01:49:13.326Z,0.60
2022-10-04T01:49:32.354Z,0.75
2022-10-04T01:49:49.986Z,1.05
2022-10-04T01:50:11.427Z,0.90
2022-10-04T01:50:33.938Z,0.70
2022-10-04T01:50:55.606Z,0.82
2022-10-04T01:51:14.561Z,0.70
2022-10-04T01:51:31.834Z,0.75
2022-10-04T01:51:53.365Z,0.60
2022-10-04T01:52:15.306Z,0.73
2022-10-04T01:52:34.057Z,0.65
2022-10-04T01:52:55.587Z,0.90
2022-10-04T01:53:15.589Z,0.80
2022-10-04T01:53:34.364Z,0.73
2022-10-04T01:53:55.031Z,0.80
2022-10-04T01:54:13.789Z,0.77
2022-10-04T01:54:33.031Z,0.68
2022-10-04T01:54:52.131Z,0.70
2022-10-04T01:55:12.915Z,0.70
2022-10-04T01:55:31.672Z,0.60
2022-10-04T01:55:50.876Z,0.60
2022-10-04T01:56:09.073Z,0.75
2022-10-04T01:56:27.653Z,0.52
2022-10-04T01:56:47.669Z,0.70
2022-10-04T01:57:07.758Z,0.80
2022-10-04T01:57:27.933Z,0.90
2022-10-04T01:57:47.632Z,0.50
2022-10-04T01:58:08.824Z,0.40
2022-10-04T01:58:26.500Z,0.60
2022-10-04T01:58:44.133Z,0.77
2022-10-04T01:59:04.014Z,0.60
2022-10-04T01:59:23.987Z,0.60
2022-10-04T01:59:43.352Z,0.80
2022-10-04T02:00:01.795Z,0.60
2022-10-04T02:00:48.375Z,0.80
2022-10-04T02:01:07.435Z,0.90
2022-10-04T02:01:27.746Z,0.85
2022-10-04T02:01:48.341Z,0.90
2022-10-04T02:02:07.595Z,1.00
2022-10-04T02:02:26.565Z,1.00
2022-10-04T02:02:45.677Z,0.90
2022-10-04T02:03:03.417Z,0.73
2022-10-04T02:03:22.639Z,0.95
2022-10-04T02:03:42.475Z,1.10
2022-10-04T02:04:00.797Z,1.05
2022-10-04T02:04:22.323Z,1.02
2022-10-04T02:04:41.041Z,1.30
2022-10-04T02:04:59.195Z,1.08
2022-10-04T02:05:18.106Z,1.10
2022-10-04T02:05:36.337Z,0.82
2022-10-04T02:05:54.383Z,0.77
2022-10-04T02:06:12.070Z,1.00
2022-10-04T02:06:30.289Z,0.85
2022-10-04T02:06:48.848Z,0.55
2022-10-04T02:07:11.216Z,0.60
2022-10-04T02:07:29.903Z,1.00
2022-10-04T02:07:48.571Z,0.93
2022-10-04T02:08:08.430Z,0.90
2022-10-04T02:08:26.872Z,1.20
2022-10-04T02:08:46.993Z,1.13
2022-10-04T02:09:07.743Z,0.80
2022-10-04T02:09:27.461Z,1.10
2022-10-04T02:09:45.259Z,0.80
2022-10-04T02:10:02.819Z,0.90
2022-10-04T02:10:20.774Z,1.10
2022-10-04T02:10:43.216Z,1.23
2022-10-04T02:11:02.038Z,1.27
2022-10-04T02:11:20.150Z,0.93
2022-10-04T02:11:37.574Z,0.55
2022-10-04T02:11:54.668Z,0.98
2022-10-04T02:12:15.781Z,0.80
2022-10-04T02:12:34.011Z,1.13
2022-10-04T02:12:54.746Z,1.20
2022-10-04T02:13:13.993Z,1.20
2022-10-04T02:13:34.366Z,1.00
2022-10-04T02:13:51.809Z,1.13
2022-10-04T02:14:15.670Z,1.13
2022-10-04T02:14:34.106Z,1.10
2022-10-04T02:14:53.123Z,0.85
2022-10-04T02:15:11.446Z,0.80
2022-10-04T02:15:28.460Z,0.93
2022-10-04T02:15:47.477Z,0.90
2022-10-04T02:16:05.484Z,0.65
2022-10-04T02:16:22.623Z,0.85
2022-10-04T02:16:39.714Z,0.80
2022-10-04T02:16:56.475Z,0.80
2022-10-04T02:17:14.075Z,0.80
2022-10-04T02:17:31.979Z,0.73
2022-10-04T02:17:48.752Z,0.70
2022-10-04T02:18:10.368Z,0.80
2022-10-04T02:18:27.250Z,0.82
2022-10-04T02:18:44.990Z,0.70
2022-10-04T02:19:03.779Z,0.80
2022-10-04T02:19:21.728Z,0.80
2022-10-04T02:19:39.549Z,0.60
2022-10-04T02:19:57.023Z,0.60
2022-10-04T02:20:15.927Z,0.50
2022-10-04T02:20:32.647Z,0.68
2022-10-04T02:20:51.354Z,0.70
2022-10-04T02:21:08.186Z,0.73
2022-10-04T02:21:24.778Z,0.60
2022-10-04T02:21:42.177Z,0.60
2022-10-04T02:21:59.063Z,0.73
2022-10-04T02:22:16.055Z,0.70
2022-10-04T02:22:33.593Z,0.68
2022-10-04T02:22:52.164Z,0.60
2022-10-04T02:23:10.909Z,0.75
2022-10-04T02:23:28.117Z,0.70
2022-10-04T02:23:46.815Z,0.57
2022-10-04T02:24:03.855Z,0.65
2022-10-04T02:24:20.591Z,1.00
2022-10-04T02:24:38.084Z,0.82
2022-10-04T02:24:56.108Z,0.80
2022-10-04T02:25:15.323Z,0.90
2022-10-04T02:25:31.945Z,1.00
2022-10-04T02:25:48.713Z,0.80
2022-10-04T02:26:05.667Z,0.65
2022-10-04T02:26:22.173Z,0.82
2022-10-04T02:26:38.808Z,1.25
2022-10-04T02:26:56.396Z,1.25
2022-10-04T02:27:13.183Z,1.15
2022-10-04T02:27:31.215Z,0.88
2022-10-04T02:27:47.909Z,0.90
2022-10-04T02:28:05.203Z,0.90
2022-10-04T02:28:21.828Z,0.60
2022-10-04T02:28:39.647Z,0.55
2022-10-04T02:28:56.162Z,0.60
2022-10-04T02:29:12.677Z,0.60
2022-10-04T02:29:29.299Z,0.63
2022-10-04T02:29:45.871Z,0.75
2022-10-04T02:30:03.264Z,0.63
2022-10-04T02:30:19.948Z,0.50
2022-10-04T02:30:38.045Z,0.70
2022-10-04T02:31:13.467Z,0.70
2022-10-04T02:31:48.453Z,0.55
2022-10-04T02:32:23.948Z,0.70
2022-10-04T02:32:59.679Z,0.90
2022-10-04T02:33:16.393Z,0.85
2022-10-04T02:33:33.174Z,0.95
2022-10-04T02:33:51.278Z,0.98
2022-10-04T02:34:08.184Z,1.00
2022-10-04T02:34:25.128Z,0.65
2022-10-04T02:34:41.807Z,0.90
2022-10-04T02:34:59.598Z,0.90
2022-10-04T02:35:17.103Z,0.77
2022-10-04T02:35:35.770Z,0.95
2022-10-04T02:35:52.325Z,0.90
2022-10-04T02:36:09.626Z,0.80
2022-10-04T02:36:28.455Z,0.73
2022-10-04T02:36:45.283Z,0.90
2022-10-04T02:37:03.884Z,0.90
2022-10-04T02:37:22.368Z,1.10
2022-10-04T02:37:39.645Z,0.80
2022-10-04T02:38:02.287Z,0.60
2022-10-04T02:38:22.515Z,0.93
2022-10-04T02:38:41.881Z,0.90
2022-10-04T02:39:00.709Z,0.73
2022-10-04T02:39:20.816Z,0.85
2022-10-04T02:39:39.186Z,0.65
2022-10-04T02:40:00.549Z,0.57
2022-10-04T02:40:18.385Z,0.85
2022-10-04T02:40:40.053Z,1.20
2022-10-04T02:40:58.150Z,0.80
2022-10-04T02:41:21.802Z,0.85
2022-10-04T02:41:39.867Z,0.90
2022-10-04T02:41:58.143Z,0.82
2022-10-04T02:42:17.540Z,0.93
2022-10-04T02:42:39.336Z,0.80
2022-10-04T02:42:59.777Z,0.68
2022-10-04T02:43:20.018Z,1.02
2022-10-04T02:43:39.399Z,0.80
2022-10-04T02:43:58.222Z,0.60
2022-10-04T02:44:17.757Z,0.80
2022-10-04T02:44:37.397Z,0.90
2022-10-04T02:44:58.820Z,1.00
2022-10-04T02:45:19.918Z,0.80
2022-10-04T02:45:39.801Z,0.85
2022-10-04T02:45:59.391Z,0.63
2022-10-04T02:46:18.168Z,0.54
2022-10-04T02:46:38.440Z,1.00
2022-10-04T02:46:58.365Z,1.02
2022-10-04T02:47:18.441Z,0.90
2022-10-04T02:47:40.692Z,0.80
2022-10-04T02:47:58.544Z,0.90
2022-10-04T02:48:28.174Z,0.64
2022-10-04T02:48:47.340Z,0.88
2022-10-04T02:49:06.227Z,0.73
2022-10-04T02:49:27.567Z,1.10
2022-10-04T02:49:46.416Z,0.80
2022-10-04T02:50:06.136Z,0.77
2022-10-04T02:50:30.180Z,0.60
2022-10-04T02:50:49.069Z,0.80
2022-10-04T02:51:11.999Z,0.75
2022-10-04T02:51:31.986Z,0.88
2022-10-04T02:51:50.859Z,1.00
2022-10-04T02:52:10.469Z,0.90
2022-10-04T02:52:30.150Z,0.88
2022-10-04T02:52:50.398Z,0.70
2022-10-04T02:53:12.675Z,0.65
2022-10-04T02:53:33.460Z,0.68
2022-10-04T02:53:52.689Z,0.82
2022-10-04T02:54:15.287Z,0.98
2022-10-04T02:54:35.296Z,1.10
2022-10-04T02:54:54.658Z,0.73
2022-10-04T02:55:16.880Z,0.73
2022-10-04T02:55:33.529Z,0.80
2022-10-04T02:55:50.041Z,0.82
2022-10-04T02:56:06.617Z,1.00
2022-10-04T02:56:24.802Z,0.80
2022-10-04T02:56:43.034Z,0.52
2022-10-04T02:56:59.794Z,0.85
2022-10-04T02:57:18.003Z,0.90
2022-10-04T02:57:34.652Z,0.60
2022-10-04T02:57:52.594Z,0.40
2022-10-04T02:58:09.693Z,0.60
2022-10-04T02:58:27.502Z,1.00
2022-10-04T02:58:44.095Z,0.88
2022-10-04T02:59:01.635Z,0.82
2022-10-04T02:59:18.168Z,1.00
2022-10-04T02:59:35.792Z,0.82
2022-10-04T03:00:01.714Z,0.60
2022-10-04T03:00:19.562Z,0.50
2022-10-04T03:00:46.289Z,1.50
2022-10-04T03:01:02.837Z,0.90
2022-10-04T03:01:26.767Z,1.40
2022-10-04T03:01:49.898Z,1.08
2022-10-04T03:02:28.697Z,1.02
2022-10-04T03:03:01.324Z,0.68
2022-10-04T03:03:22.945Z,0.65
2022-10-04T03:03:40.492Z,0.60
2022-10-04T03:03:58.108Z,0.74
2022-10-04T03:04:15.128Z,0.77
2022-10-04T03:04:33.603Z,0.65
2022-10-04T03:04:51.427Z,0.70
2022-10-04T03:05:10.304Z,0.63
2022-10-04T03:05:29.178Z,1.00
2022-10-04T03:05:47.409Z,1.10
2022-10-04T03:06:05.709Z,0.80
2022-10-04T03:06:24.400Z,1.08
2022-10-04T03:06:42.581Z,0.90
2022-10-04T03:07:01.185Z,0.82
2022-10-04T03:07:18.448Z,0.88
2022-10-04T03:07:35.841Z,0.73
2022-10-04T03:07:53.144Z,1.20
2022-10-04T03:08:09.669Z,0.90
2022-10-04T03:08:27.889Z,0.80
2022-10-04T03:08:47.042Z,0.93
2022-10-04T03:09:04.454Z,1.02
2022-10-04T03:09:26.137Z,0.93
2022-10-04T03:09:46.525Z,1.08
2022-10-04T03:10:07.257Z,0.70
2022-10-04T03:10:24.854Z,0.73
2022-10-04T03:10:42.658Z,0.73
2022-10-04T03:10:59.997Z,0.80
2022-10-04T03:11:18.855Z,0.80
2022-10-04T03:11:37.730Z,0.68
2022-10-04T03:11:54.544Z,0.85
2022-10-04T03:12:12.529Z,0.70
2022-10-04T03:12:29.916Z,0.65
2022-10-04T03:12:50.445Z,0.85
2022-10-04T03:13:07.341Z,0.77
2022-10-04T03:13:23.880Z,0.70
2022-10-04T03:13:41.698Z,0.70
2022-10-04T03:14:00.145Z,0.90
2022-10-04T03:14:20.193Z,0.93
2022-10-04T03:14:37.750Z,0.80
2022-10-04T03:14:54.628Z,0.70
2022-10-04T03:15:12.899Z,0.80
2022-10-04T03:15:29.660Z,0.80
2022-10-04T03:15:47.033Z,0.68
2022-10-04T03:16:04.791Z,0.80
2022-10-04T03:16:21.895Z,0.85
2022-10-04T03:16:39.499Z,0.50
2022-10-04T03:16:57.604Z,0.50
2022-10-04T03:17:16.859Z,0.65
2022-10-04T03:17:34.251Z,0.68
2022-10-04T03:17:50.892Z,0.92
2022-10-04T03:18:07.448Z,1.05
2022-10-04T03:18:24.328Z,0.95
2022-10-04T03:18:41.625Z,0.88
2022-10-04T03:18:59.332Z,0.80
2022-10-04T03:19:16.819Z,0.88
2022-10-04T03:19:34.060Z,0.68
2022-10-04T03:19:50.727Z,0.40
2022-10-04T03:20:09.191Z,0.70
2022-10-04T03:20:25.871Z,0.80
2022-10-04T03:20:43.742Z,0.70
2022-10-04T03:21:01.626Z,1.00
2022-10-04T03:21:20.926Z,0.82
2022-10-04T03:21:38.920Z,0.60
2022-10-04T03:21:56.887Z,0.68
2022-10-04T03:22:14.368Z,0.90
2022-10-04T03:22:31.034Z,0.90
2022-10-04T03:22:50.997Z,0.76
2022-10-04T03:23:08.064Z,0.60
2022-10-04T03:23:24.559Z,0.60
2022-10-04T03:23:41.757Z,0.65
2022-10-04T03:24:01.646Z,0.93
2022-10-04T03:24:19.824Z,0.57
2022-10-04T03:24:37.723Z,0.60
2022-10-04T03:24:56.837Z,0.60
2022-10-04T03:25:15.717Z,0.57
2022-10-04T03:25:39.044Z,0.50
2022-10-04T03:26:00.392Z,0.40
2022-10-04T03:26:21.329Z,0.50
2022-10-04T03:26:39.716Z,0.52
2022-10-04T03:26:58.251Z,0.65
2022-10-04T03:27:16.504Z,0.70
2022-10-04T03:27:34.006Z,1.05
2022-10-04T03:27:51.068Z,1.40
2022-10-04T03:28:08.209Z,0.90
2022-10-04T03:28:24.925Z,1.25
2022-10-04T03:28:42.612Z,1.13
2022-10-04T03:28:59.277Z,0.75
2022-10-04T03:29:16.619Z,0.93
2022-10-04T03:29:34.103Z,0.80
2022-10-04T03:29:51.487Z,0.70
2022-10-04T03:30:14.010Z,0.50
2022-10-04T03:30:31.826Z,0.50
2022-10-04T03:30:49.119Z,1.40
2022-10-04T03:31:05.969Z,2.10
2022-10-04T03:31:22.900Z,0.70
2022-10-04T03:31:41.534Z,0.77
2022-10-04T03:32:00.607Z,0.80
2022-10-04T03:32:18.852Z,0.80
2022-10-04T03:32:35.550Z,0.60
2022-10-04T03:32:52.996Z,0.60
2022-10-04T03:33:13.211Z,0.70
2022-10-04T03:33:30.943Z,0.65
2022-10-04T03:33:47.549Z,0.93
2022-10-04T03:34:04.119Z,0.77
2022-10-04T03:34:22.782Z,0.90
2022-10-04T03:34:40.122Z,0.63
2022-10-04T03:34:58.426Z,1.10
2022-10-04T03:35:19.449Z,1.20
2022-10-04T03:35:37.458Z,0.90
2022-10-04T03:35:55.049Z,0.60
2022-10-04T03:36:14.118Z,0.82
2022-10-04T03:36:30.927Z,0.88
2022-10-04T03:36:49.233Z,0.80
2022-10-04T03:37:07.151Z,0.80
2022-10-04T03:37:24.197Z,0.80
2022-10-04T03:37:41.877Z,0.77
2022-10-04T03:37:58.916Z,0.80
2022-10-04T03:38:16.094Z,0.50
2022-10-04T03:38:34.544Z,0.55
2022-10-04T03:38:52.970Z,0.70
2022-10-04T03:39:12.575Z,0.75
2022-10-04T03:39:30.814Z,0.76
2022-10-04T03:39:48.519Z,0.70
2022-10-04T03:40:08.393Z,0.60
2022-10-04T03:40:27.423Z,0.55
2022-10-04T03:40:49.923Z,0.38
2022-10-04T03:41:06.516Z,0.60
2022-10-04T03:41:23.615Z,0.80
2022-10-04T03:41:40.838Z,0.88
2022-10-04T03:41:58.481Z,0.70
2022-10-04T03:42:17.402Z,0.70
2022-10-04T03:42:35.961Z,0.93
2022-10-04T03:42:52.947Z,0.95
2022-10-04T03:43:12.380Z,0.73
2022-10-04T03:43:31.625Z,0.60
2022-10-04T03:43:50.413Z,0.70
2022-10-04T03:44:07.644Z,0.80
2022-10-04T03:44:24.616Z,0.60
2022-10-04T03:44:42.061Z,0.60
2022-10-04T03:45:00.738Z,0.70
2022-10-04T03:45:18.846Z,0.70
2022-10-04T03:45:35.520Z,0.68
2022-10-04T03:45:53.459Z,0.80
2022-10-04T03:46:10.262Z,0.75
2022-10-04T03:46:28.274Z,0.82
2022-10-04T03:46:45.764Z,0.65
2022-10-04T03:47:02.449Z,0.70
2022-10-04T03:47:22.374Z,0.57
2022-10-04T03:47:40.700Z,0.65
2022-10-04T03:48:01.081Z,0.45
2022-10-04T03:48:22.768Z,0.60
2022-10-04T03:48:39.987Z,0.55
2022-10-04T03:48:56.923Z,0.52
2022-10-04T03:49:17.689Z,0.70
2022-10-04T03:49:36.917Z,0.85
2022-10-04T03:49:55.358Z,0.60
2022-10-04T03:50:15.020Z,0.80
2022-10-04T03:50:34.177Z,0.80
2022-10-04T03:50:52.169Z,0.55
2022-10-04T03:51:13.096Z,0.60
2022-10-04T03:51:29.706Z,0.50
2022-10-04T03:51:48.596Z,0.50
2022-10-04T03:52:06.572Z,1.02
2022-10-04T03:52:24.358Z,1.13
2022-10-04T03:52:44.083Z,0.60
2022-10-04T03:53:03.377Z,0.55
2022-10-04T03:53:25.070Z,0.40
2022-10-04T03:53:44.467Z,0.47
2022-10-04T03:54:01.768Z,0.45
2022-10-04T03:54:23.531Z,0.70
2022-10-04T03:54:40.153Z,0.82
2022-10-04T03:54:58.053Z,1.20
2022-10-04T03:55:16.483Z,1.27
2022-10-04T03:55:34.017Z,1.00
2022-10-04T03:55:51.083Z,0.88
2022-10-04T03:56:11.090Z,1.30
2022-10-04T03:56:29.620Z,1.45
2022-10-04T03:56:47.622Z,1.20
2022-10-04T03:57:05.938Z,1.00
2022-10-04T03:57:23.263Z,1.05
2022-10-04T03:57:39.829Z,1.20
2022-10-04T03:57:56.721Z,1.30
2022-10-04T03:58:14.135Z,1.60
2022-10-04T03:58:32.221Z,1.40
2022-10-04T03:58:49.929Z,0.93
2022-10-04T03:59:07.159Z,1.05
2022-10-04T03:59:25.528Z,1.35
2022-10-04T03:59:43.194Z,1.42
2022-10-04T04:00:01.029Z,1.60
2022-10-04T04:00:18.247Z,1.90
2022-10-04T04:00:37.791Z,1.83
2022-10-04T04:01:01.139Z,1.60
2022-10-04T04:01:21.730Z,1.10
2022-10-04T04:01:41.195Z,1.25
2022-10-04T04:02:02.669Z,1.17
2022-10-04T04:02:31.624Z,1.00
2022-10-04T04:02:51.130Z,0.55
2022-10-04T04:03:11.948Z,0.95
2022-10-04T04:03:29.813Z,1.08
2022-10-04T04:03:50.960Z,1.30
2022-10-04T04:04:13.426Z,1.15
2022-10-04T04:04:36.619Z,1.15
2022-10-04T04:04:58.198Z,1.10
2022-10-04T04:05:19.368Z,1.33
2022-10-04T04:05:37.740Z,1.17
2022-10-04T04:05:57.801Z,1.20
2022-10-04T04:06:16.432Z,1.00
2022-10-04T04:06:38.377Z,1.25
2022-10-04T04:07:00.021Z,1.17
2022-10-04T04:07:19.976Z,0.70
2022-10-04T04:07:38.957Z,0.85
2022-10-04T04:08:00.678Z,1.48
2022-10-04T04:08:21.665Z,1.40
2022-10-04T04:08:41.115Z,1.00
2022-10-04T04:08:58.401Z,1.10
2022-10-04T04:09:19.061Z,0.90
2022-10-04T04:09:39.333Z,0.70
2022-10-04T04:10:00.783Z,0.70
2022-10-04T04:10:19.966Z,0.57
2022-10-04T04:10:38.527Z,0.60
2022-10-04T04:10:55.739Z,0.50
2022-10-04T04:11:18.802Z,0.98
2022-10-04T04:11:36.711Z,1.30
2022-10-04T04:11:55.064Z,1.13
2022-10-04T04:12:14.284Z,0.82
2022-10-04T04:12:35.205Z,0.65
2022-10-04T04:12:55.130Z,0.68
2022-10-04T04:13:17.557Z,1.10
2022-10-04T04:13:46.205Z,0.70
2022-10-04T04:14:04.228Z,0.80
2022-10-04T04:14:24.486Z,0.57
2022-10-04T04:14:41.651Z,0.60
2022-10-04T04:14:58.875Z,0.47
2022-10-04T04:15:15.950Z,0.60
2022-10-04T04:15:33.910Z,0.85
2022-10-04T04:15:51.757Z,0.70
2022-10-04T04:16:09.514Z,0.60
2022-10-04T04:16:26.516Z,0.55
2022-10-04T04:16:43.460Z,0.40
2022-10-04T04:17:17.633Z,0.47
2022-10-04T04:17:36.704Z,1.40
2022-10-04T04:17:55.323Z,1.75
2022-10-04T04:18:14.642Z,1.02
2022-10-04T04:18:32.268Z,0.70
2022-10-04T04:18:48.944Z,0.65
2022-10-04T04:19:11.476Z,0.50
2022-10-04T04:19:29.183Z,0.50
2022-10-04T04:19:46.399Z,0.60
2022-10-04T04:20:07.362Z,0.66
2022-10-04T04:20:25.981Z,0.52
2022-10-04T04:20:43.025Z,0.77
2022-10-04T04:21:00.513Z,0.70
2022-10-04T04:21:19.017Z,0.57
2022-10-04T04:21:36.254Z,0.60
2022-10-04T04:21:54.736Z,1.08
2022-10-04T04:22:15.385Z,1.65
2022-10-04T04:22:32.063Z,1.00
2022-10-04T04:22:55.627Z,1.20
2022-10-04T04:23:17.602Z,0.85